createdAt,value
2022-08-12T00:01:02.967Z,21.56
2022-08-12T00:03:50.315Z,21.39
2022-08-12T00:06:37.937Z,21.32
2022-08-12T00:09:26.390Z,21.53
2022-08-12T00:12:14.117Z,21.48
2022-08-12T00:15:01.708Z,21.39
2022-08-12T00:17:47.794Z,21.25
2022-08-12T00:20:34.121Z,21.45
2022-08-12T00:23:20.380Z,21.44
2022-08-12T00:26:21.573Z,21.27
2022-08-12T00:29:13.225Z,21.20
2022-08-12T00:32:00.458Z,21.30
2022-08-12T00:34:49.070Z,21.13
2022-08-12T00:37:38.480Z,21.24
2022-08-12T00:40:26.186Z,21.20
2022-08-12T00:42:54.835Z,21.15
2022-08-12T00:45:24.589Z,21.09
2022-08-12T00:47:53.900Z,20.83
2022-08-12T00:50:23.358Z,21.05
2022-08-12T00:52:53.615Z,21.07
2022-08-12T00:55:22.376Z,20.97
2022-08-12T00:57:52.231Z,21.12
2022-08-12T01:00:22.640Z,21.02
2022-08-12T01:02:55.788Z,21.14
2022-08-12T01:05:42.804Z,20.88
2022-08-12T01:08:43.252Z,21.14
2022-08-12T01:11:31.856Z,20.93
2022-08-12T01:14:01.535Z,20.92
2022-08-12T01:16:29.942Z,20.89
2022-08-12T01:19:00.248Z,20.76
2022-08-12T01:21:46.720Z,20.90
2022-08-12T01:24:36.753Z,20.70
2022-08-12T01:27:07.742Z,20.58
2022-08-12T01:29:41.837Z,20.80
2022-08-12T01:32:12.658Z,20.69
2022-08-12T01:34:43.202Z,20.83
2022-08-12T01:37:11.709Z,20.82
2022-08-12T01:40:36.046Z,20.73
2022-08-12T01:42:46.440Z,20.37
2022-08-12T01:45:15.366Z,20.63
2022-08-12T01:47:55.141Z,20.61
2022-08-12T01:50:27.683Z,20.54
2022-08-12T01:53:05.757Z,20.42
2022-08-12T01:55:38.361Z,20.39
2022-08-12T01:58:16.503Z,20.43
2022-08-12T02:00:54.954Z,20.39
2022-08-12T02:03:54.418Z,20.51
2022-08-12T02:06:45.063Z,20.36
2022-08-12T02:09:33.141Z,20.46
2022-08-12T02:12:08.547Z,20.46
2022-08-12T02:14:52.752Z,20.32
2022-08-12T02:17:55.410Z,20.33
2022-08-12T02:20:35.316Z,20.30
2022-08-12T02:23:19.424Z,20.14
2022-08-12T02:25:48.376Z,20.25
2022-08-12T02:28:18.057Z,20.37
2022-08-12T02:30:46.719Z,20.11
2022-08-12T02:33:15.123Z,20.02
2022-08-12T02:35:43.254Z,20.20
2022-08-12T02:38:12.846Z,20.02
2022-08-12T02:40:45.473Z,20.00
2022-08-12T02:43:19.150Z,19.95
2022-08-12T02:45:51.377Z,20.35
2022-08-12T02:48:24.801Z,19.85
2022-08-12T02:50:53.972Z,19.85
2022-08-12T02:53:22.376Z,20.09
2022-08-12T02:55:50.555Z,20.10
2022-08-12T02:58:20.611Z,20.16
2022-08-12T03:01:02.379Z,19.89
2022-08-12T03:03:35.130Z,19.90
2022-08-12T03:06:06.458Z,20.01
2022-08-12T03:08:41.271Z,20.18
2022-08-12T03:11:16.131Z,19.99
2022-08-12T03:13:47.908Z,19.96
2022-08-12T03:16:16.019Z,19.87
2022-08-12T03:18:45.956Z,19.79
2022-08-12T03:21:55.669Z,19.93
2022-08-12T03:24:09.385Z,19.75
2022-08-12T03:26:38.592Z,19.83
2022-08-12T03:29:08.456Z,19.93
2022-08-12T03:31:36.913Z,19.84
2022-08-12T03:34:07.649Z,19.97
2022-08-12T03:36:38.088Z,19.74
2022-08-12T03:39:36.546Z,19.79
2022-08-12T03:42:28.669Z,19.67
2022-08-12T03:45:32.855Z,19.79
2022-08-12T03:48:23.974Z,19.78
2022-08-12T03:51:10.511Z,19.71
2022-08-12T03:53:56.470Z,19.75
2022-08-12T03:56:42.371Z,19.71
2022-08-12T03:59:28.955Z,19.64
2022-08-12T04:01:58.743Z,19.60
2022-08-12T04:04:28.699Z,19.49
2022-08-12T04:06:58.139Z,19.74
2022-08-12T04:09:26.816Z,19.58
2022-08-12T04:12:12.359Z,19.75
2022-08-12T04:14:40.853Z,19.80
2022-08-12T04:17:12.062Z,19.72
2022-08-12T04:19:40.248Z,19.73
2022-08-12T04:22:12.623Z,19.64
2022-08-12T04:24:42.264Z,19.61
2022-08-12T04:27:12.596Z,19.77
2022-08-12T04:30:21.315Z,19.92
2022-08-12T04:32:32.158Z,19.83
2022-08-12T04:35:00.372Z,19.51
2022-08-12T04:37:28.590Z,19.82
2022-08-12T04:40:17.236Z,19.83
2022-08-12T04:42:56.906Z,19.65
2022-08-12T04:45:25.235Z,19.64
2022-08-12T04:47:54.862Z,19.80
2022-08-12T04:50:35.373Z,19.74
2022-08-12T04:53:05.538Z,20.09
2022-08-12T04:55:34.935Z,20.05
2022-08-12T04:58:03.290Z,19.77
2022-08-12T05:00:31.484Z,19.77
2022-08-12T05:03:01.514Z,19.93
2022-08-12T05:05:33.921Z,20.06
2022-08-12T05:08:07.946Z,19.98
2022-08-12T05:10:36.321Z,19.88
2022-08-12T05:13:08.635Z,19.89
2022-08-12T05:16:00.263Z,19.97
2022-08-12T05:18:29.445Z,19.97
2022-08-12T05:20:59.218Z,19.75
2022-08-12T05:23:27.789Z,19.84
2022-08-12T05:25:57.516Z,19.59
2022-08-12T05:28:27.346Z,19.88
2022-08-12T05:30:56.632Z,19.87
2022-08-12T05:33:26.733Z,19.92
2022-08-12T05:35:56.440Z,19.88
2022-08-12T05:38:43.663Z,19.87
2022-08-12T05:41:19.302Z,20.19
2022-08-12T05:43:51.121Z,20.13
2022-08-12T05:46:19.770Z,20.00
2022-08-12T05:48:49.640Z,20.17
2022-08-12T05:51:19.790Z,20.15
2022-08-12T05:53:48.441Z,20.09
2022-08-12T05:56:21.648Z,20.30
2022-08-12T05:58:51.374Z,20.10
2022-08-12T06:02:09.528Z,20.36
2022-08-12T06:04:10.169Z,20.12
2022-08-12T06:06:42.348Z,20.22
2022-08-12T06:09:11.531Z,20.05
2022-08-12T06:12:05.247Z,20.15
2022-08-12T06:14:35.281Z,20.04
2022-08-12T06:17:04.198Z,20.14
2022-08-12T06:20:26.633Z,20.44
2022-08-12T06:22:22.157Z,20.41
2022-08-12T06:24:53.215Z,20.44
2022-08-12T06:27:21.786Z,20.57
2022-08-12T06:30:08.283Z,20.49
2022-08-12T06:32:51.904Z,20.69
2022-08-12T06:35:47.893Z,20.77
2022-08-12T06:38:19.466Z,20.68
2022-08-12T06:41:08.980Z,21.05
2022-08-12T06:44:06.921Z,20.68
2022-08-12T06:46:26.886Z,20.89
2022-08-12T06:48:59.377Z,21.31
2022-08-12T06:51:30.056Z,21.15
2022-08-12T06:54:00.550Z,21.04
2022-08-12T06:56:59.627Z,21.32
2022-08-12T06:59:17.463Z,21.37
2022-08-12T07:01:51.043Z,21.36
2022-08-12T07:04:37.864Z,21.30
2022-08-12T07:07:08.334Z,21.44
2022-08-12T07:10:05.527Z,21.51
2022-08-12T07:12:27.723Z,21.48
2022-08-12T07:14:57.758Z,21.11
2022-08-12T07:17:26.463Z,21.36
2022-08-12T07:19:57.992Z,21.60
2022-08-12T07:22:28.928Z,21.53
2022-08-12T07:25:16.192Z,21.79
2022-08-12T07:27:46.804Z,21.57
2022-08-12T07:30:15.557Z,21.64
2022-08-12T07:32:49.861Z,21.65
2022-08-12T07:35:19.656Z,21.67
2022-08-12T07:37:50.671Z,21.80
2022-08-12T07:40:21.293Z,21.63
2022-08-12T07:42:49.671Z,21.32
2022-08-12T07:45:19.571Z,21.55
2022-08-12T07:47:48.737Z,21.58
2022-08-12T07:50:23.792Z,21.57
2022-08-12T07:52:52.447Z,21.67
2022-08-12T07:55:21.960Z,21.81
2022-08-12T07:57:52.542Z,21.87
2022-08-12T08:00:21.166Z,22.01
2022-08-12T08:02:53.522Z,21.93
2022-08-12T08:05:23.519Z,21.88
2022-08-12T08:07:53.448Z,21.89
2022-08-12T08:10:23.089Z,22.22
2022-08-12T08:12:58.239Z,22.29
2022-08-12T08:15:51.173Z,22.21
2022-08-12T08:18:26.654Z,22.18
2022-08-12T08:20:56.944Z,22.45
2022-08-12T08:23:56.230Z,22.24
2022-08-12T08:26:27.411Z,22.50
2022-08-12T08:28:55.795Z,22.43
2022-08-12T08:31:23.946Z,22.54
2022-08-12T08:34:05.014Z,22.78
2022-08-12T08:36:43.736Z,22.62
2022-08-12T08:39:17.089Z,22.60
2022-08-12T08:42:16.363Z,22.59
2022-08-12T08:44:49.746Z,22.82
2022-08-12T08:47:26.524Z,22.81
2022-08-12T08:49:57.514Z,22.98
2022-08-12T08:52:40.074Z,23.25
2022-08-12T08:55:10.669Z,23.23
2022-08-12T08:57:43.843Z,23.45
2022-08-12T09:00:16.746Z,23.47
2022-08-12T09:02:49.396Z,23.45
2022-08-12T09:05:27.480Z,23.60
2022-08-12T09:10:47.221Z,23.75
2022-08-12T09:16:20.961Z,23.52
2022-08-12T09:18:52.592Z,23.68
2022-08-12T09:21:54.535Z,23.80
2022-08-12T09:24:27.687Z,23.90
2022-08-12T09:26:56.220Z,23.86
2022-08-12T09:30:11.094Z,23.63
2022-08-12T09:32:56.008Z,23.82
2022-08-12T09:35:21.874Z,24.09
2022-08-12T09:37:58.154Z,23.88
2022-08-12T09:41:01.819Z,24.18
2022-08-12T09:43:34.810Z,24.08
2022-08-12T09:46:21.649Z,24.29
2022-08-12T09:48:55.868Z,24.53
2022-08-12T09:51:37.595Z,24.76
2022-08-12T09:54:31.674Z,24.95
2022-08-12T09:56:59.521Z,24.80
2022-08-12T10:00:17.665Z,24.75
2022-08-12T10:02:44.846Z,24.72
2022-08-12T10:05:13.989Z,24.88
2022-08-12T10:07:46.519Z,25.15
2022-08-12T10:10:23.056Z,25.44
2022-08-12T10:13:34.832Z,25.36
2022-08-12T10:16:05.508Z,25.26
2022-08-12T10:18:51.753Z,25.44
2022-08-12T10:21:23.236Z,25.56
2022-08-12T10:23:55.128Z,25.71
2022-08-12T10:26:43.112Z,25.58
2022-08-12T10:30:03.406Z,25.57
2022-08-12T10:32:45.078Z,25.55
2022-08-12T10:35:14.374Z,25.35
2022-08-12T10:38:33.849Z,25.56
2022-08-12T10:40:34.536Z,25.58
2022-08-12T10:43:23.776Z,25.59
2022-08-12T10:45:54.302Z,25.87
2022-08-12T10:48:34.138Z,26.22
2022-08-12T10:52:03.116Z,26.35
2022-08-12T10:54:00.667Z,26.51
2022-08-12T10:56:34.490Z,26.86
2022-08-12T10:59:05.485Z,26.79
2022-08-12T11:04:18.803Z,26.83
2022-08-12T11:04:43.684Z,26.82
2022-08-12T11:08:38.705Z,26.96
2022-08-12T11:10:08.362Z,27.12
2022-08-12T11:12:58.760Z,27.29
2022-08-12T11:16:04.293Z,26.70
2022-08-12T11:18:17.837Z,26.92
2022-08-12T11:20:49.195Z,27.19
2022-08-12T11:23:26.142Z,27.50
2022-08-12T11:26:07.612Z,27.55
2022-08-12T11:28:38.613Z,27.63
2022-08-12T11:31:13.262Z,27.87
2022-08-12T11:34:05.749Z,27.70
2022-08-12T11:36:32.072Z,27.61
2022-08-12T11:39:05.262Z,27.97
2022-08-12T11:41:34.800Z,28.11
2022-08-12T11:44:35.170Z,28.08
2022-08-12T11:46:53.089Z,28.48
2022-08-12T11:49:32.220Z,28.62
2022-08-12T11:52:26.570Z,28.84
2022-08-12T11:54:55.140Z,28.81
2022-08-12T11:58:34.154Z,28.57
2022-08-12T12:03:01.636Z,28.37
2022-08-12T12:05:41.539Z,28.61
2022-08-12T12:08:38.111Z,28.51
2022-08-12T12:11:11.849Z,28.48
2022-08-12T12:14:07.955Z,28.47
2022-08-12T12:16:28.310Z,29.13
2022-08-12T12:18:58.119Z,29.02
2022-08-12T12:21:46.990Z,29.45
2022-08-12T12:24:14.650Z,29.60
2022-08-12T12:27:00.077Z,29.60
2022-08-12T12:30:19.427Z,29.34
2022-08-12T12:32:18.582Z,29.53
2022-08-12T12:35:13.848Z,29.91
2022-08-12T12:38:04.687Z,29.76
2022-08-12T12:40:30.089Z,30.19
2022-08-12T12:43:05.079Z,30.20
2022-08-12T12:45:35.459Z,29.86
2022-08-12T12:48:05.497Z,30.10
2022-08-12T12:50:42.412Z,29.79
2022-08-12T12:54:08.162Z,30.50
2022-08-12T12:56:15.962Z,30.11
2022-08-12T12:58:45.774Z,30.43
2022-08-12T13:01:26.621Z,30.61
2022-08-12T13:04:02.099Z,30.91
2022-08-12T13:06:32.291Z,30.87
2022-08-12T13:09:02.594Z,31.24
2022-08-12T13:11:40.655Z,31.24
2022-08-12T13:14:28.775Z,31.06
2022-08-12T13:17:02.989Z,31.33
2022-08-12T13:19:38.782Z,31.63
2022-08-12T13:22:20.702Z,31.47
2022-08-12T13:24:54.932Z,31.83
2022-08-12T13:27:35.664Z,31.63
2022-08-12T13:30:11.393Z,31.71
2022-08-12T13:32:41.562Z,30.95
2022-08-12T13:35:19.413Z,31.24
2022-08-12T13:38:02.430Z,31.30
2022-08-12T13:40:34.289Z,30.97
2022-08-12T13:43:06.385Z,30.90
2022-08-12T13:45:36.740Z,30.90
2022-08-12T13:48:06.780Z,31.34
2022-08-12T13:50:37.521Z,31.88
2022-08-12T13:53:24.515Z,32.13
2022-08-12T13:56:01.627Z,32.12
2022-08-12T13:58:34.693Z,31.19
2022-08-12T14:01:09.213Z,30.94
2022-08-12T14:03:51.128Z,31.23
2022-08-12T14:06:20.904Z,31.41
2022-08-12T14:08:50.527Z,31.40
2022-08-12T14:11:25.364Z,31.58
2022-08-12T14:14:04.301Z,31.16
2022-08-12T14:16:48.700Z,31.59
2022-08-12T14:19:24.466Z,31.92
2022-08-12T14:21:59.688Z,32.41
2022-08-12T14:24:31.660Z,32.63
2022-08-12T14:27:02.069Z,32.11
2022-08-12T14:29:59.055Z,31.39
2022-08-12T14:32:21.630Z,30.55
2022-08-12T14:34:53.083Z,30.44
2022-08-12T14:37:56.265Z,29.97
2022-08-12T14:40:18.410Z,29.86
2022-08-12T14:42:47.284Z,29.77
2022-08-12T14:45:15.866Z,30.62
2022-08-12T14:47:58.702Z,31.03
2022-08-12T14:50:57.529Z,31.60
2022-08-12T14:59:23.447Z,31.71
2022-08-12T15:01:52.435Z,32.05
2022-08-12T15:04:31.319Z,32.60
2022-08-12T15:07:00.192Z,31.85
2022-08-12T15:09:29.530Z,32.30
2022-08-12T15:12:03.102Z,32.33
2022-08-12T15:14:32.465Z,32.75
2022-08-12T15:17:07.155Z,32.10
2022-08-12T15:20:31.241Z,32.65
2022-08-12T15:22:36.953Z,32.53
2022-08-12T15:25:17.692Z,32.49
2022-08-12T15:28:04.301Z,32.74
2022-08-12T15:30:35.270Z,33.08
2022-08-12T15:33:12.730Z,33.17
2022-08-12T15:35:53.228Z,32.98
2022-08-12T15:38:24.896Z,33.42
2022-08-12T15:40:59.066Z,33.90
2022-08-12T15:44:17.055Z,34.15
2022-08-12T15:46:25.543Z,33.90
2022-08-12T15:48:54.457Z,33.87
2022-08-12T15:51:57.258Z,34.22
2022-08-12T15:54:33.103Z,34.18
2022-08-12T15:57:08.228Z,34.05
2022-08-12T16:00:03.758Z,34.55
2022-08-12T16:02:29.602Z,34.78
2022-08-12T16:04:58.581Z,34.57
2022-08-12T16:07:31.213Z,34.81
2022-08-12T16:10:08.387Z,35.06
2022-08-12T16:12:43.458Z,34.96
2022-08-12T16:15:25.015Z,35.35
2022-08-12T16:18:20.290Z,34.91
2022-08-12T16:20:46.670Z,35.31
2022-08-12T16:23:36.525Z,33.85
2022-08-12T16:26:15.353Z,33.88
2022-08-12T16:28:56.213Z,33.98
2022-08-12T16:31:25.134Z,34.26
2022-08-12T16:34:00.592Z,34.13
2022-08-12T16:36:30.143Z,33.89
2022-08-12T16:39:03.707Z,33.60
2022-08-12T16:41:39.970Z,33.06
2022-08-12T16:44:09.209Z,32.55
2022-08-12T16:46:40.197Z,31.88
2022-08-12T16:49:26.061Z,31.29
2022-08-12T16:51:58.161Z,31.64
2022-08-12T16:54:36.185Z,31.35
2022-08-12T16:57:09.636Z,31.06
2022-08-12T16:59:54.186Z,31.33
2022-08-12T17:02:33.466Z,31.68
2022-08-12T17:05:04.208Z,32.17
2022-08-12T17:07:36.124Z,32.10
2022-08-12T17:10:08.845Z,31.88
2022-08-12T17:12:38.369Z,31.54
2022-08-12T17:15:50.496Z,30.99
2022-08-12T17:18:38.817Z,30.32
2022-08-12T17:20:47.714Z,30.30
2022-08-12T17:23:17.317Z,30.01
2022-08-12T17:25:49.019Z,29.75
2022-08-12T17:28:19.657Z,29.28
2022-08-12T17:30:54.437Z,29.05
2022-08-12T17:33:33.328Z,28.96
2022-08-12T17:36:05.571Z,28.83
2022-08-12T17:38:35.067Z,28.59
2022-08-12T17:41:21.543Z,28.46
2022-08-12T17:43:58.307Z,28.29
2022-08-12T17:46:33.399Z,28.26
2022-08-12T17:49:06.761Z,28.08
2022-08-12T17:52:02.850Z,28.21
2022-08-12T17:54:32.833Z,28.05
2022-08-12T17:57:10.707Z,27.98
2022-08-12T17:59:48.542Z,27.88
2022-08-12T18:02:25.538Z,27.93
2022-08-12T18:05:10.194Z,27.83
2022-08-12T18:07:39.362Z,27.68
2022-08-12T18:10:08.643Z,27.65
2022-08-12T18:12:38.639Z,27.64
2022-08-12T18:15:11.534Z,27.50
2022-08-12T18:17:59.389Z,27.48
2022-08-12T18:20:29.801Z,27.38
2022-08-12T18:23:01.199Z,27.30
2022-08-12T18:26:15.609Z,27.48
2022-08-12T18:28:43.219Z,27.37
2022-08-12T18:31:13.677Z,27.18
2022-08-12T18:33:43.997Z,27.16
2022-08-12T18:36:22.366Z,27.09
2022-08-12T18:38:56.285Z,27.02
2022-08-12T18:41:34.298Z,26.96
2022-08-12T18:44:07.990Z,26.99
2022-08-12T18:46:53.983Z,27.01
2022-08-12T18:49:30.810Z,26.84
2022-08-12T18:52:04.498Z,26.77
2022-08-12T18:54:36.123Z,26.72
2022-08-12T18:57:15.518Z,26.90
2022-08-12T18:59:59.756Z,26.68
2022-08-12T19:02:33.912Z,26.65
2022-08-12T19:05:09.501Z,26.65
2022-08-12T19:07:50.049Z,26.63
2022-08-12T19:10:30.306Z,26.71
2022-08-12T19:13:24.050Z,26.59
2022-08-12T19:15:57.755Z,26.48
2022-08-12T19:18:29.782Z,26.43
2022-08-12T19:21:06.336Z,26.53
2022-08-12T19:23:40.394Z,26.46
2022-08-12T19:26:10.764Z,26.34
2022-08-12T19:28:41.478Z,26.28
2022-08-12T19:31:56.859Z,26.24
2022-08-12T19:37:22.671Z,26.26
2022-08-12T19:40:09.841Z,26.12
2022-08-12T19:42:44.855Z,26.02
2022-08-12T19:45:17.113Z,25.95
2022-08-12T19:47:47.016Z,25.85
2022-08-12T19:50:20.068Z,25.59
2022-08-12T19:52:51.103Z,25.57
2022-08-12T19:55:23.320Z,25.71
2022-08-12T19:58:03.101Z,25.61
2022-08-12T20:00:36.479Z,25.77
2022-08-12T20:03:08.115Z,25.68
2022-08-12T20:06:05.328Z,25.63
2022-08-12T20:08:37.989Z,25.56
2022-08-12T20:12:12.660Z,25.38
2022-08-12T20:14:01.263Z,25.16
2022-08-12T20:19:53.295Z,25.18
2022-08-12T20:22:24.143Z,25.39
2022-08-12T20:25:01.732Z,25.36
2022-08-12T20:28:03.255Z,25.08
2022-08-12T20:30:37.377Z,25.08
2022-08-12T20:33:17.752Z,25.10
2022-08-12T20:36:13.529Z,25.12
2022-08-12T20:38:40.411Z,25.11
2022-08-12T20:41:16.790Z,24.90
2022-08-12T20:43:52.395Z,25.03
2022-08-12T20:46:21.559Z,24.89
2022-08-12T20:48:54.730Z,24.95
2022-08-12T20:51:24.950Z,24.86
2022-08-12T20:53:58.776Z,24.87
2022-08-12T20:56:33.427Z,24.83
2022-08-12T20:59:06.267Z,24.82
2022-08-12T21:01:47.085Z,24.85
2022-08-12T21:04:35.236Z,24.88
2022-08-12T21:07:09.535Z,25.09
2022-08-12T21:09:42.152Z,24.93
2022-08-12T21:12:31.066Z,25.09
2022-08-12T21:15:23.197Z,25.03
2022-08-12T21:18:11.031Z,24.97
2022-08-12T21:20:50.234Z,25.00
2022-08-12T21:23:22.792Z,25.17
2022-08-12T21:25:52.929Z,25.19
2022-08-12T21:28:31.093Z,25.17
2022-08-12T21:32:34.533Z,25.19
2022-08-12T21:34:08.789Z,25.02
2022-08-12T21:36:43.106Z,24.99
2022-08-12T21:39:18.868Z,25.13
2022-08-12T21:41:51.551Z,25.14
2022-08-12T21:45:44.682Z,25.04
2022-08-12T21:47:20.118Z,24.73
2022-08-12T21:50:03.000Z,24.85
2022-08-12T21:52:36.091Z,24.44
2022-08-12T21:55:08.592Z,24.47
2022-08-12T21:57:51.196Z,24.33
2022-08-12T22:00:32.268Z,24.36
2022-08-12T22:04:01.676Z,24.27
2022-08-12T22:06:31.734Z,24.02
2022-08-12T22:09:15.433Z,24.27
2022-08-12T22:11:58.732Z,24.29
2022-08-12T22:14:29.626Z,24.31
2022-08-12T22:17:00.391Z,24.50
2022-08-12T22:19:29.201Z,24.38
2022-08-12T22:22:05.372Z,24.41
2022-08-12T22:24:33.911Z,24.39
2022-08-12T22:27:08.380Z,24.29
2022-08-12T22:30:08.704Z,24.33
2022-08-12T22:32:47.497Z,24.39
2022-08-12T22:35:47.432Z,24.34
2022-08-12T22:38:23.800Z,24.10
2022-08-12T22:40:53.984Z,24.11
2022-08-12T22:44:00.710Z,24.29
2022-08-12T22:46:52.715Z,24.48
2022-08-12T22:49:37.291Z,24.00
2022-08-12T22:52:12.905Z,24.10
2022-08-12T22:55:00.182Z,24.03
2022-08-12T22:57:53.576Z,23.93
2022-08-12T23:00:27.410Z,23.88
2022-08-12T23:03:00.600Z,23.91
2022-08-12T23:05:36.833Z,23.84
2022-08-12T23:08:22.325Z,23.88
2022-08-12T23:10:50.593Z,24.00
2022-08-12T23:13:42.885Z,24.01
2022-08-12T23:16:18.131Z,24.02
2022-08-12T23:18:59.072Z,23.93
2022-08-12T23:22:03.391Z,23.90
2022-08-12T23:24:17.006Z,24.18
2022-08-12T23:27:03.289Z,23.84
2022-08-12T23:29:43.712Z,23.96
2022-08-12T23:32:35.099Z,23.71
2022-08-12T23:35:03.895Z,23.82
2022-08-12T23:37:47.284Z,23.91
2022-08-12T23:40:21.264Z,23.90
2022-08-12T23:42:50.749Z,23.93
2022-08-12T23:45:30.937Z,23.92
2022-08-12T23:48:02.524Z,23.47
2022-08-12T23:50:34.417Z,23.39
2022-08-12T23:53:05.554Z,23.53
2022-08-12T23:55:40.734Z,23.67
2022-08-12T23:58:21.253Z,23.28
